(°C)
24°
24°
23°
21°
18°
16°
14°
(°C)
21°
21°
19°
18°
16°
13°
12°
З
ЗСЗ
ЗСЗ
СЗ
СЗ
ССЗ
ССВ
(км/ч)
12-18
10-15
9-14
7-13
6-13
5-11
4-8
(мм)
0
0
0
0
0
0
0
(%)
0
0
0
0
0
0
0

Высота солнцестояния

/ 36.3°
sun-icon
UV 8
05:26
20:23
Убывающая луна (226°)
00:00
08:02

METAR для 44.1°С 15.3°В (LDZD)

Время Условия Температура/
Точка росы
Ветер Видимость Погода Облачность Давление Изменить Необработанный
VFR 25°C / 5°C 270º variable 240º to 300º 7kt >10km - Clouds and Visibility OK 1026 No Significant change LDZD 191430Z 27007KT 240V300 CAVOK 25/05 Q1026 NOSIG
VFR 25°C / 6°C 260º variable 220º to 300º 8kt >10km - Clouds and Visibility OK 1027 No Significant change LDZD 191400Z 26008KT 220V300 CAVOK 25/06 Q1027 NOSIG
VFR 24°C / 3°C 270º variable 230º to 320º 8kt >10km - Clouds and Visibility OK 1027 No Significant change LDZD 191330Z 27008KT 230V320 CAVOK 24/03 Q1027 NOSIG
VFR 25°C / 5°C 260º variable 230º to 290º 7kt >10km - Clouds and Visibility OK 1027 No Significant change LDZD 191300Z 26007KT 230V290 CAVOK 25/05 Q1027 NOSIG
VFR 25°C / 3°C 290º variable 230º to 030º 7kt >10km - Clouds and Visibility OK 1027 No Significant change LDZD 191230Z 29007KT 230V030 CAVOK 25/03 Q1027 NOSIG
VFR 25°C / 5°C 250º variable 190º to 300º 7kt >10km - Clouds and Visibility OK 1027 Temporary: Wind 310º 10kt. LDZD 191200Z 25007KT 190V300 CAVOK 25/05 Q1027 TEMPO 31010KT
VFR 24°C / 4°C variable 6kt >10km - Clouds and Visibility OK 1027 Temporary: Wind 310º 10kt. LDZD 191130Z VRB06KT CAVOK 24/04 Q1027 TEMPO 31010KT
VFR 24°C / 3°C 270º variable 210º to 320º 7kt >10km - Clouds and Visibility OK 1027 Temporary: Wind 310º 10kt. LDZD 191100Z 27007KT 210V320 CAVOK 24/03 Q1027 TEMPO 31010KT
VFR 24°C / 2°C 240º variable 130º to 300º 6kt >10km - Clouds and Visibility OK 1027 Becoming: Wind 300º 8kt. LDZD 191030Z 24006KT 130V300 CAVOK 24/02 Q1027 BECMG 30008KT
VFR 24°C / 3°C variable 5kt >10km - Clouds and Visibility OK 1027 Becoming: Wind 300º 8kt. LDZD 191000Z VRB05KT CAVOK 24/03 Q1027 BECMG 30008KT
VFR 24°C / 1°C variable 3kt >10km - Clouds and Visibility OK 1027 Becoming: Wind 300º 8kt. LDZD 190930Z VRB03KT CAVOK 24/01 Q1027 BECMG 30008KT
VFR 24°C / -2°C variable 4kt >10km - Clouds and Visibility OK 1027 No Significant change LDZD 190900Z VRB04KT CAVOK 24/M02 Q1027 NOSIG
VFR 23°C / -2°C 10º variable 260º to 070º 5kt >10km - Clouds and Visibility OK 1027 No Significant change LDZD 190830Z 01005KT 260V070 CAVOK 23/M02 Q1027 NOSIG
VFR 23°C / 0°C variable 4kt >10km - Clouds and Visibility OK 1027 No Significant change LDZD 190800Z VRB04KT CAVOK 23/00 Q1027 NOSIG
VFR 23°C / -1°C 80º variable 020º to 140º 6kt >10km - Clouds and Visibility OK 1027 No Significant change LDZD 190730Z 08006KT 020V140 CAVOK 23/M01 Q1027 NOSIG
VFR 21°C / 1°C 40º variable 350º to 090º 6kt >10km - Clouds and Visibility OK 1027 No Significant change LDZD 190700Z 04006KT 350V090 CAVOK 21/01 Q1027 NOSIG
VFR 20°C / 0°C 50º variable 350º to 090º 4kt >10km - Clouds and Visibility OK 1027 No Significant change LDZD 190630Z 05004KT 350V090 CAVOK 20/00 Q1027 NOSIG
VFR 20°C / -1°C 100º variable 050º to 150º 5kt >10km - Clouds and Visibility OK 1027 No Significant change LDZD 190600Z 10005KT 050V150 CAVOK 20/M01 Q1027 NOSIG
VFR 19°C / 0°C 110º variable 060º to 180º 5kt >10km - Clouds and Visibility OK 1026 No Significant change LDZD 190530Z 11005KT 060V180 CAVOK 19/M00 Q1026 NOSIG
VFR 17°C / 0°C 60º variable 010º to 140º 4kt >10km - Clouds and Visibility OK 1026 No Significant change LDZD 190500Z 06004KT 010V140 CAVOK 17/00 Q1026 NOSIG
VFR 15°C / -2°C 240º variable 190º to 280º 4kt >10km - Clouds and Visibility OK 1026 No Significant change LDZD 190430Z 24004KT 190V280 CAVOK 15/M02 Q1026 NOSIG
VFR 14°C / -2°C variable 3kt >10km - Clouds and Visibility OK 1025 No Significant change LDZD 190400Z VRB03KT CAVOK 14/M02 Q1025 NOSIG
VFR 16°C / -3°C 70º 13kt >10km - Clouds and Visibility OK 1025 No Significant change LDZD 190330Z 07013KT CAVOK 16/M03 Q1025 NOSIG
VFR 17°C / -3°C 60º 13kt >10km - Clouds and Visibility OK 1025 Becoming: Wind 60º 4kt. LDZD 190300Z 06013KT CAVOK 17/M03 Q1025 BECMG 06004KT

VFR

25°C / 5°C

[Больше]
Ветер 270º variable 240º to 300º 7kt
Видимость >10km
Погода -
Облачность Clouds and Visibility OK
Давление 1026
Изменить No Significant change
Необработанный LDZD 191430Z 27007KT 240V300 CAVOK 25/05 Q1026 NOSIG

VFR

25°C / 6°C

[Больше]
Ветер 260º variable 220º to 300º 8kt
Видимость >10km
Погода -
Облачность Clouds and Visibility OK
Давление 1027
Изменить No Significant change
Необработанный LDZD 191400Z 26008KT 220V300 CAVOK 25/06 Q1027 NOSIG

VFR

24°C / 3°C

[Больше]
Ветер 270º variable 230º to 320º 8kt
Видимость >10km
Погода -
Облачность Clouds and Visibility OK
Давление 1027
Изменить No Significant change
Необработанный LDZD 191330Z 27008KT 230V320 CAVOK 24/03 Q1027 NOSIG

VFR

25°C / 5°C

[Больше]
Ветер 260º variable 230º to 290º 7kt
Видимость >10km
Погода -
Облачность Clouds and Visibility OK
Давление 1027
Изменить No Significant change
Необработанный LDZD 191300Z 26007KT 230V290 CAVOK 25/05 Q1027 NOSIG

VFR

25°C / 3°C

[Больше]
Ветер 290º variable 230º to 030º 7kt
Видимость >10km
Погода -
Облачность Clouds and Visibility OK
Давление 1027
Изменить No Significant change
Необработанный LDZD 191230Z 29007KT 230V030 CAVOK 25/03 Q1027 NOSIG

VFR

25°C / 5°C

[Больше]
Ветер 250º variable 190º to 300º 7kt
Видимость >10km
Погода -
Облачность Clouds and Visibility OK
Давление 1027
Изменить Temporary: Wind 310º 10kt.
Необработанный LDZD 191200Z 25007KT 190V300 CAVOK 25/05 Q1027 TEMPO 31010KT

VFR

24°C / 4°C

[Больше]
Ветер variable 6kt
Видимость >10km
Погода -
Облачность Clouds and Visibility OK
Давление 1027
Изменить Temporary: Wind 310º 10kt.
Необработанный LDZD 191130Z VRB06KT CAVOK 24/04 Q1027 TEMPO 31010KT

VFR

24°C / 3°C

[Больше]
Ветер 270º variable 210º to 320º 7kt
Видимость >10km
Погода -
Облачность Clouds and Visibility OK
Давление 1027
Изменить Temporary: Wind 310º 10kt.
Необработанный LDZD 191100Z 27007KT 210V320 CAVOK 24/03 Q1027 TEMPO 31010KT

VFR

24°C / 2°C

[Больше]
Ветер 240º variable 130º to 300º 6kt
Видимость >10km
Погода -
Облачность Clouds and Visibility OK
Давление 1027
Изменить Becoming: Wind 300º 8kt.
Необработанный LDZD 191030Z 24006KT 130V300 CAVOK 24/02 Q1027 BECMG 30008KT

VFR

24°C / 3°C

[Больше]
Ветер variable 5kt
Видимость >10km
Погода -
Облачность Clouds and Visibility OK
Давление 1027
Изменить Becoming: Wind 300º 8kt.
Необработанный LDZD 191000Z VRB05KT CAVOK 24/03 Q1027 BECMG 30008KT

VFR

24°C / 1°C

[Больше]
Ветер variable 3kt
Видимость >10km
Погода -
Облачность Clouds and Visibility OK
Давление 1027
Изменить Becoming: Wind 300º 8kt.
Необработанный LDZD 190930Z VRB03KT CAVOK 24/01 Q1027 BECMG 30008KT

VFR

24°C / -2°C

[Больше]
Ветер variable 4kt
Видимость >10km
Погода -
Облачность Clouds and Visibility OK
Давление 1027
Изменить No Significant change
Необработанный LDZD 190900Z VRB04KT CAVOK 24/M02 Q1027 NOSIG

VFR

23°C / -2°C

[Больше]
Ветер 10º variable 260º to 070º 5kt
Видимость >10km
Погода -
Облачность Clouds and Visibility OK
Давление 1027
Изменить No Significant change
Необработанный LDZD 190830Z 01005KT 260V070 CAVOK 23/M02 Q1027 NOSIG

VFR

23°C / 0°C

[Больше]
Ветер variable 4kt
Видимость >10km
Погода -
Облачность Clouds and Visibility OK
Давление 1027
Изменить No Significant change
Необработанный LDZD 190800Z VRB04KT CAVOK 23/00 Q1027 NOSIG

VFR

23°C / -1°C

[Больше]
Ветер 80º variable 020º to 140º 6kt
Видимость >10km
Погода -
Облачность Clouds and Visibility OK
Давление 1027
Изменить No Significant change
Необработанный LDZD 190730Z 08006KT 020V140 CAVOK 23/M01 Q1027 NOSIG

VFR

21°C / 1°C

[Больше]
Ветер 40º variable 350º to 090º 6kt
Видимость >10km
Погода -
Облачность Clouds and Visibility OK
Давление 1027
Изменить No Significant change
Необработанный LDZD 190700Z 04006KT 350V090 CAVOK 21/01 Q1027 NOSIG

VFR

20°C / 0°C

[Больше]
Ветер 50º variable 350º to 090º 4kt
Видимость >10km
Погода -
Облачность Clouds and Visibility OK
Давление 1027
Изменить No Significant change
Необработанный LDZD 190630Z 05004KT 350V090 CAVOK 20/00 Q1027 NOSIG

VFR

20°C / -1°C

[Больше]
Ветер 100º variable 050º to 150º 5kt
Видимость >10km
Погода -
Облачность Clouds and Visibility OK
Давление 1027
Изменить No Significant change
Необработанный LDZD 190600Z 10005KT 050V150 CAVOK 20/M01 Q1027 NOSIG

VFR

19°C / 0°C

[Больше]
Ветер 110º variable 060º to 180º 5kt
Видимость >10km
Погода -
Облачность Clouds and Visibility OK
Давление 1026
Изменить No Significant change
Необработанный LDZD 190530Z 11005KT 060V180 CAVOK 19/M00 Q1026 NOSIG

VFR

17°C / 0°C

[Больше]
Ветер 60º variable 010º to 140º 4kt
Видимость >10km
Погода -
Облачность Clouds and Visibility OK
Давление 1026
Изменить No Significant change
Необработанный LDZD 190500Z 06004KT 010V140 CAVOK 17/00 Q1026 NOSIG

VFR

15°C / -2°C

[Больше]
Ветер 240º variable 190º to 280º 4kt
Видимость >10km
Погода -
Облачность Clouds and Visibility OK
Давление 1026
Изменить No Significant change
Необработанный LDZD 190430Z 24004KT 190V280 CAVOK 15/M02 Q1026 NOSIG

VFR

14°C / -2°C

[Больше]
Ветер variable 3kt
Видимость >10km
Погода -
Облачность Clouds and Visibility OK
Давление 1025
Изменить No Significant change
Необработанный LDZD 190400Z VRB03KT CAVOK 14/M02 Q1025 NOSIG

VFR

16°C / -3°C

[Больше]
Ветер 70º 13kt
Видимость >10km
Погода -
Облачность Clouds and Visibility OK
Давление 1025
Изменить No Significant change
Необработанный LDZD 190330Z 07013KT CAVOK 16/M03 Q1025 NOSIG

VFR

17°C / -3°C

[Больше]
Ветер 60º 13kt
Видимость >10km
Погода -
Облачность Clouds and Visibility OK
Давление 1025
Изменить Becoming: Wind 60º 4kt.
Необработанный LDZD 190300Z 06013KT CAVOK 17/M03 Q1025 BECMG 06004KT

TAF для 44.1°С 15.3°В (LDZD)

From till


Maximum Temperature 26ºC on . Minimum Temperature 8ºC on .
From till Wind 310º 10kt. Visibility 10km or more. Nil Significant Cloud.
Becoming from till Wind variable 2kt. Visibility 10km or more. Nil Significant Cloud.
Becoming from till Wind 310º 8kt. Visibility 10km or more. Nil Significant Cloud.

Необработанный: TAF LDZD 191125Z 1912/2012 31010KT CAVOK TX26/2011Z TN08/2004Z BECMG 1917/1919 VRB02KT BECMG 2009/2011 31008KT

Радарный и сверхкраткосрочный прогноз осадков для 44.1°С 15.3°В

Морось
Незначительные
Умеренные
Сильные
Очень Сильные
Град

Индикатор местности находится на 44.1°С 15.3°В. Анимация показывает радар осадков за последний час, а также прогноз погоды для 1h. Морось или небольшой снег могут быть невидимы для радара. Интенсивность осадков имеет цветовую кодировку - от светло-голубого до оранжевого.

Текущие спутниковые изображения и снимки дождя для 44.1°С 15.3°В

Указатель местности находится на 44.1°С 15.3°В. [Больше]

Спутниковое изображение в реальном времени сочетает в себе видимый свет в дневное время с инфракрасным излучением в ночное время. Ночью изображение получается не темным, так как инфракрасное излучение может обнаружить разницу температур. К сожалению, низкие облака и туман трудно отличить от температуры у поверхности земли и поэтому могут быть почти незаметны ночью. Спутниковые снимки Meteosat для Европы обновляются каждые 5 минут в режиме реального времени.Снимки GOES-16/GOES-17 (Северная и Южная Америка) и Химавари (Азия) обновляются каждые 10 минут.

Вероятность осадков оценивается по данным радиолокаторов и спутников. Спутниковые данные о возможности осадков в ночное время менее точные, чем дневные данные. Оранжевыми крестами отмечаются места,где обнаруживается молния (болееЕвропа).

Копирайт 2022 EUMETSAT / meteoblue. Данные о молниях предоставляются со стороны nowcast.

Обратно к последним данным